Time;durP1;ratioP1;P1;durP2;ratioP2;P2;SDS_P1;SDS_P2;PMS_P1;PMS_P2;Temp;Humidity;BMP_temperature;BMP_pressure;BME280_temperature;BME280_humidity;BME280_pressure;Samples;Min_cycle;Max_cycle;Signal;HPM_P1;HPM_P2
2023/05/28 00:02:10;;;;;;;10.80;8.75;;;;;;;16.25;69.46;100429.40;1800883;78;21160;-60
2023/05/28 00:05:03;;;;;;;9.83;8.33;;;;;;;16.26;69.52;100434.41;1806209;79;21361;-59
2023/05/28 00:08:10;;;;;;;11.93;8.78;;;;;;;16.26;69.53;100440.80;1800796;79;21180;-58
2023/05/28 00:11:16;;;;;;;11.28;8.68;;;;;;;16.23;69.49;100443.98;1806258;79;21388;-58
2023/05/28 00:14:24;;;;;;;11.18;8.55;;;;;;;16.19;69.38;100446.83;1800844;79;21163;-59
2023/05/28 00:17:30;;;;;;;10.65;8.83;;;;;;;16.16;69.43;100450.53;1806214;79;21326;-60
2023/05/28 00:20:36;;;;;;;11.35;8.70;;;;;;;16.11;69.42;100448.41;1806212;79;21715;-58
2023/05/28 00:23:42;;;;;;;12.20;9.73;;;;;;;16.08;69.43;100455.73;1801674;77;21255;-58
2023/05/28 00:26:48;;;;;;;13.43;10.48;;;;;;;16.03;69.47;100447.22;1801514;79;21310;-58
2023/05/28 00:29:56;;;;;;;12.43;9.30;;;;;;;15.99;69.43;100450.09;1801362;79;21199;-58
2023/05/28 00:33:01;;;;;;;11.83;9.65;;;;;;;15.94;69.54;100449.86;1800862;79;21731;-58
2023/05/28 00:36:08;;;;;;;13.75;9.65;;;;;;;15.92;69.61;100455.29;1801436;78;21816;-58
2023/05/28 00:39:15;;;;;;;10.98;9.18;;;;;;;15.92;69.84;100456.11;1801225;78;21318;-59
2023/05/28 00:42:24;;;;;;;13.05;8.95;;;;;;;15.95;70.06;100454.31;1800978;78;21171;-59
2023/05/28 00:45:31;;;;;;;10.90;9.28;;;;;;;15.98;70.23;100457.20;1800999;79;21278;-59
2023/05/28 00:48:38;;;;;;;11.80;8.98;;;;;;;15.99;70.34;100461.14;1800842;79;21771;-58
2023/05/28 00:51:44;;;;;;;10.48;9.08;;;;;;;16.01;70.43;100456.27;1801033;79;21164;-59
2023/05/28 00:54:50;;;;;;;12.68;9.15;;;;;;;16.03;70.48;100459.64;1800858;79;21183;-58
2023/05/28 00:58:03;;;;;;;13.00;9.73;;;;;;;16.04;70.57;100447.56;1800848;79;21256;-59
2023/05/28 01:01:04;;;;;;;13.25;9.00;;;;;;;16.06;70.62;100450.11;1800883;79;21855;-58
2023/05/28 01:04:11;;;;;;;10.93;8.65;;;;;;;16.07;70.67;100446.28;1801054;79;21337;-59
2023/05/28 01:07:18;;;;;;;17.15;9.33;;;;;;;16.07;70.71;100448.52;1800965;79;21180;-59
2023/05/28 01:10:24;;;;;;;10.00;8.48;;;;;;;16.08;70.75;100447.97;1801375;79;21227;-59
2023/05/28 01:13:31;;;;;;;13.75;9.40;;;;;;;16.07;70.75;100454.05;1801005;79;21215;-59
2023/05/28 01:16:37;;;;;;;12.18;8.90;;;;;;;16.05;70.82;100452.53;1800947;79;21224;-59
2023/05/28 01:19:47;;;;;;;11.70;9.28;;;;;;;16.05;70.85;100459.44;1801465;79;21164;-58
2023/05/28 01:23:01;;;;;;;15.60;8.65;;;;;;;16.04;70.90;100457.74;1801170;79;21711;-59
2023/05/28 01:26:08;;;;;;;10.13;7.97;;;;;;;16.04;70.99;100453.08;1804736;78;21188;-59
2023/05/28 01:29:26;;;;;;;12.95;8.23;;;;;;;16.05;71.03;100457.53;1806209;79;21326;-59
2023/05/28 01:32:32;;;;;;;11.97;8.70;;;;;;;16.04;71.06;100459.98;1806277;79;21835;-59
2023/05/28 01:35:38;;;;;;;12.95;8.60;;;;;;;16.03;71.14;100467.10;1806212;79;21370;-60
2023/05/28 01:38:44;;;;;;;12.65;8.43;;;;;;;16.01;71.16;100471.45;1806189;78;21421;-59
2023/05/28 01:41:52;;;;;;;14.33;8.13;;;;;;;15.99;71.19;100471.32;1806187;79;21866;-60
2023/05/28 01:44:59;;;;;;;12.30;8.08;;;;;;;15.97;71.23;100471.53;1806190;79;21404;-60
2023/05/28 01:48:05;;;;;;;11.73;8.08;;;;;;;15.95;71.24;100468.13;1806197;79;21342;-59
2023/05/28 01:51:12;;;;;;;10.50;7.50;;;;;;;15.93;71.23;100473.02;1806299;79;21306;-60
2023/05/28 01:54:20;;;;;;;12.98;7.80;;;;;;;15.91;71.26;100473.75;1806206;78;21339;-59
2023/05/28 01:57:27;;;;;;;9.38;7.00;;;;;;;15.90;71.27;100473.41;1806219;79;21393;-59
2023/05/28 02:00:32;;;;;;;9.93;6.87;;;;;;;15.89;71.30;100488.28;1806185;79;21330;-58
2023/05/28 02:03:38;;;;;;;13.35;7.20;;;;;;;15.88;71.30;100484.36;1806218;79;21326;-59
2023/05/28 02:06:46;;;;;;;9.73;7.10;;;;;;;15.87;71.28;100493.70;1806207;79;21303;-60
2023/05/28 02:09:52;;;;;;;8.85;6.58;;;;;;;15.87;71.28;100486.80;1806172;79;21389;-58
2023/05/28 02:13:01;;;;;;;13.58;6.60;;;;;;;15.85;71.29;100494.44;1806193;79;21342;-60
2023/05/28 02:16:07;;;;;;;8.03;6.47;;;;;;;15.84;71.29;100489.43;1806223;79;21338;-58
2023/05/28 02:19:18;;;;;;;8.33;6.35;;;;;;;15.84;71.23;100496.89;1806188;79;21349;-58
2023/05/28 02:22:25;;;;;;;8.55;5.97;;;;;;;15.81;71.18;100487.09;1806207;79;21337;-60
2023/05/28 02:25:30;;;;;;;10.75;6.17;;;;;;;15.80;71.20;100489.54;1806237;79;21314;-59
2023/05/28 02:28:36;;;;;;;9.38;5.50;;;;;;;15.80;71.16;100493.68;1811956;79;21314;-58
2023/05/28 02:31:44;;;;;;;8.80;6.03;;;;;;;15.81;71.17;100490.41;1811777;79;21361;-59
2023/05/28 02:34:54;;;;;;;9.70;6.35;;;;;;;15.81;71.15;100493.98;1811956;78;21400;-58
2023/05/28 02:37:57;;;;;;;9.40;5.85;;;;;;;15.82;71.12;100496.23;1811837;79;22132;-60
2023/05/28 02:41:04;;;;;;;12.55;5.90;;;;;;;15.81;71.08;100502.27;1811912;79;21822;-61
2023/05/28 02:44:12;;;;;;;8.50;5.40;;;;;;;15.80;71.02;100503.34;1811845;79;21334;-60
2023/05/28 02:47:19;;;;;;;9.85;5.72;;;;;;;15.81;71.00;100508.34;1808518;78;21342;-58
2023/05/28 02:50:25;;;;;;;7.42;5.60;;;;;;;15.79;70.92;100514.05;1811756;79;21334;-57
2023/05/28 02:53:37;;;;;;;15.50;6.17;;;;;;;15.78;70.94;100512.34;1809755;79;21855;-58
2023/05/28 02:56:44;;;;;;;9.25;5.60;;;;;;;15.81;70.93;100511.94;1811905;79;21338;-59
2023/05/28 02:59:53;;;;;;;8.88;5.12;;;;;;;15.81;70.86;100516.08;1811947;79;21349;-58
2023/05/28 03:02:59;;;;;;;12.28;6.03;;;;;;;15.80;70.80;100515.77;1811921;79;21338;-59
2023/05/28 03:06:07;;;;;;;17.12;5.80;;;;;;;15.81;70.78;100522.98;1811988;79;21314;-59
2023/05/28 03:09:17;;;;;;;11.33;5.60;;;;;;;15.87;70.85;100534.57;1811926;79;21847;-60
2023/05/28 03:12:23;;;;;;;9.90;5.08;;;;;;;15.94;70.84;100535.98;1811746;78;21355;-59
2023/05/28 03:15:30;;;;;;;16.62;7.08;;;;;;;16.01;70.80;100536.34;1811901;79;21330;-59
2023/05/28 03:18:37;;;;;;;7.35;4.92;;;;;;;16.03;70.67;100534.20;1811929;79;21353;-59
2023/05/28 03:21:43;;;;;;;9.93;5.00;;;;;;;16.05;70.58;100539.00;1811765;78;21452;-59
2023/05/28 03:24:52;;;;;;;8.35;5.30;;;;;;;16.09;70.60;100538.06;1811793;79;21413;-59
2023/05/28 03:27:59;;;;;;;10.05;5.03;;;;;;;16.13;70.63;100536.06;1810854;78;21345;-60
2023/05/28 03:31:08;;;;;;;11.38;4.83;;;;;;;16.17;70.59;100547.00;1812044;79;21716;-58
2023/05/28 03:34:15;;;;;;;7.37;4.60;;;;;;;16.23;70.48;100553.61;1811785;79;21346;-59
2023/05/28 03:37:22;;;;;;;7.85;4.70;;;;;;;16.22;70.38;100549.99;1811714;79;21338;-59
2023/05/28 03:40:29;;;;;;;8.18;4.47;;;;;;;16.26;70.33;100560.97;1811763;79;21333;-58
2023/05/28 03:43:34;;;;;;;10.10;4.92;;;;;;;16.26;70.23;100563.73;1811774;78;21696;-59
2023/05/28 03:46:40;;;;;;;13.20;4.78;;;;;;;16.28;70.22;100556.61;1811928;79;21381;-58
2023/05/28 03:49:46;;;;;;;11.85;4.90;;;;;;;16.29;70.25;100563.83;1811597;79;21322;-58
2023/05/28 03:52:53;;;;;;;8.00;4.62;;;;;;;16.32;70.23;100561.50;1811750;79;21345;-59
2023/05/28 03:56:01;;;;;;;12.13;5.15;;;;;;;16.36;70.21;100550.89;1811738;79;21381;-58
2023/05/28 03:59:06;;;;;;;10.48;4.90;;;;;;;16.38;70.10;100557.91;1811624;79;21357;-59
2023/05/28 04:02:13;;;;;;;7.67;4.60;;;;;;;16.40;70.12;100555.79;1811778;79;21870;-58
2023/05/28 04:05:20;;;;;;;6.97;4.50;;;;;;;16.40;70.06;100551.64;1812123;79;21380;-59
2023/05/28 04:08:27;;;;;;;8.60;4.87;;;;;;;16.47;70.16;100572.94;1812056;78;21302;-59
2023/05/28 04:11:34;;;;;;;10.48;4.97;;;;;;;16.56;70.16;100567.53;1811827;79;21877;-59
2023/05/28 04:14:41;;;;;;;10.70;4.80;;;;;;;16.62;70.13;100571.69;1811827;79;21335;-58
2023/05/28 04:17:49;;;;;;;11.53;4.90;;;;;;;16.68;70.04;100565.87;1785848;79;21334;-59
2023/05/28 04:20:57;;;;;;;9.08;4.62;;;;;;;16.66;69.98;100561.94;1769317;80;21408;-59
2023/05/28 04:24:03;;;;;;;7.58;4.22;;;;;;;16.70;70.01;100558.22;1769544;80;21385;-59
2023/05/28 04:27:09;;;;;;;8.90;4.92;;;;;;;16.73;69.95;100555.86;1769645;81;21346;-58
2023/05/28 04:30:20;;;;;;;9.28;4.53;;;;;;;16.81;70.02;100561.73;1761069;80;21366;-57
2023/05/28 04:33:28;;;;;;;9.68;4.75;;;;;;;16.87;69.98;100558.95;1747459;81;21224;-59
2023/05/28 04:36:36;;;;;;;9.88;4.60;;;;;;;16.94;69.98;100557.57;1761158;81;21215;-58
2023/05/28 04:39:42;;;;;;;8.73;4.67;;;;;;;17.01;69.97;100563.97;1761419;81;21733;-59
2023/05/28 04:42:49;;;;;;;7.67;4.47;;;;;;;17.09;69.94;100574.30;1761353;81;21986;-59
2023/05/28 04:45:55;;;;;;;10.13;4.95;;;;;;;17.19;70.01;100580.23;1761294;81;21823;-58
2023/05/28 04:49:01;;;;;;;9.15;5.00;;;;;;;17.30;69.97;100592.03;1761687;81;21741;-59
2023/05/28 04:52:08;;;;;;;8.68;4.97;;;;;;;17.38;69.86;100588.19;1761856;81;21752;-58
2023/05/28 04:55:14;;;;;;;9.53;5.00;;;;;;;17.47;69.84;100597.47;1747094;81;21757;-60
2023/05/28 04:58:20;;;;;;;9.85;4.75;;;;;;;17.57;69.77;100591.49;1748254;81;21184;-60
2023/05/28 05:01:27;;;;;;;8.38;4.60;;;;;;;17.62;69.67;100599.48;1762152;81;21712;-60
2023/05/28 05:04:36;;;;;;;8.50;4.37;;;;;;;17.69;69.54;100605.01;1762062;81;21244;-59
2023/05/28 05:07:45;;;;;;;9.45;4.70;;;;;;;17.75;69.45;100609.67;1767704;79;21189;-61
2023/05/28 05:10:51;;;;;;;6.47;4.45;;;;;;;17.81;69.43;100606.03;1761452;81;21220;-59
2023/05/28 05:13:58;;;;;;;8.80;4.17;;;;;;;17.85;69.36;100602.61;1761450;81;21208;-60
2023/05/28 05:17:08;;;;;;;7.87;4.47;;;;;;;17.91;69.28;100614.75;1761524;81;21722;-59
2023/05/28 05:20:16;;;;;;;12.15;4.37;;;;;;;17.95;69.20;100606.30;1761465;81;21232;-58
2023/05/28 05:23:22;;;;;;;8.63;4.83;;;;;;;18.01;69.18;100606.84;1761516;81;21209;-59
2023/05/28 05:26:29;;;;;;;7.50;4.58;;;;;;;18.06;69.11;100615.33;1761442;81;21359;-59
2023/05/28 05:29:35;;;;;;;9.65;4.30;;;;;;;18.13;69.05;100614.78;1761210;81;21315;-60
2023/05/28 05:32:41;;;;;;;8.23;4.95;;;;;;;18.23;69.09;100607.38;1773767;80;21375;-61
2023/05/28 05:35:49;;;;;;;7.42;4.92;;;;;;;18.34;69.05;100610.84;1773752;79;21762;-60
2023/05/28 05:39:00;;;;;;;9.15;4.80;;;;;;;18.42;68.91;100613.41;1758553;80;21489;-59
2023/05/28 05:42:08;;;;;;;7.47;4.67;;;;;;;18.50;68.81;100609.86;1771637;80;21360;-60
2023/05/28 05:45:16;;;;;;;7.65;4.10;;;;;;;18.57;68.68;100611.17;1774392;79;21347;-59
2023/05/28 05:48:21;;;;;;;9.85;5.22;;;;;;;18.62;68.56;100616.91;1774497;80;21933;-59
2023/05/28 05:51:32;;;;;;;9.58;4.90;;;;;;;18.68;68.52;100619.64;1777644;79;21375;-59
2023/05/28 05:54:39;;;;;;;7.45;4.42;;;;;;;18.77;68.47;100618.33;1774453;79;21482;-60
2023/05/28 05:57:45;;;;;;;11.73;5.10;;;;;;;18.84;68.35;100623.28;1774410;80;21891;-59
2023/05/28 06:00:51;;;;;;;9.03;4.70;;;;;;;18.93;68.35;100618.33;1774302;79;21930;-60
2023/05/28 06:04:00;;;;;;;10.65;4.80;;;;;;;19.03;68.30;100622.30;1774462;80;21356;-60
2023/05/28 06:07:12;;;;;;;8.55;4.15;;;;;;;19.10;68.17;100624.50;1787585;79;21386;-61
2023/05/28 06:10:39;;;;;;;13.78;4.80;;;;;;;19.20;68.12;100615.67;1805938;78;21453;-59
2023/05/28 06:13:47;;;;;;;6.28;4.30;;;;;;;19.30;68.07;100615.49;1805753;79;21784;-60
2023/05/28 06:16:53;;;;;;;11.18;5.15;;;;;;;19.40;68.00;100618.28;1806115;79;21346;-61
2023/05/28 06:20:00;;;;;;;7.97;4.42;;;;;;;19.46;67.83;100615.98;1805752;78;21393;-60
2023/05/28 06:23:07;;;;;;;8.63;4.80;;;;;;;19.49;67.63;100610.00;1803974;78;21405;-63
2023/05/28 06:26:14;;;;;;;12.95;4.92;;;;;;;19.52;67.53;100611.76;1805429;79;21392;-59
2023/05/28 06:29:20;;;;;;;10.98;4.65;;;;;;;19.58;67.50;100607.23;1802649;78;21358;-59
2023/05/28 06:32:29;;;;;;;8.73;4.90;;;;;;;19.65;67.50;100600.52;1804533;79;21366;-60
2023/05/28 06:35:34;;;;;;;9.43;5.30;;;;;;;19.75;67.44;100605.02;1805640;78;21350;-60
2023/05/28 06:38:39;;;;;;;9.65;4.47;;;;;;;19.85;67.39;100603.10;1805578;79;21855;-59
2023/05/28 06:41:45;;;;;;;7.03;4.65;;;;;;;19.90;67.16;100610.21;1803895;79;21840;-64
2023/05/28 06:44:59;;;;;;;10.55;4.70;;;;;;;19.90;66.94;100606.05;1805948;78;21358;-57
2023/05/28 06:48:06;;;;;;;8.00;4.92;;;;;;;19.91;66.86;100607.20;1805518;79;21346;-59
2023/05/28 06:51:13;;;;;;;7.53;4.95;;;;;;;19.97;66.83;100617.92;1803638;79;21946;-60
2023/05/28 06:54:19;;;;;;;9.80;5.08;;;;;;;20.02;66.74;100616.69;1803614;79;21383;-60
2023/05/28 06:57:26;;;;;;;12.40;4.90;;;;;;;20.10;66.67;100605.27;1803407;79;21354;-60
2023/05/28 07:00:34;;;;;;;12.65;5.03;;;;;;;20.17;66.62;100613.03;1801402;79;21869;-60
2023/05/28 07:03:49;;;;;;;9.08;4.60;;;;;;;20.21;66.51;100603.13;1803593;79;21343;-61
2023/05/28 07:07:06;;;;;;;8.90;5.08;;;;;;;20.29;66.38;100601.42;1803584;79;21335;-60
2023/05/28 07:10:13;;;;;;;12.03;5.00;;;;;;;20.36;66.28;100602.20;1794666;78;21180;-59
2023/05/28 07:13:19;;;;;;;9.80;4.33;;;;;;;20.41;66.18;100600.39;1715907;82;22014;-60
2023/05/28 07:16:24;;;;;;;10.45;4.30;;;;;;;20.51;66.10;100605.40;1787676;79;21390;-60
2023/05/28 07:19:31;;;;;;;10.55;4.80;;;;;;;20.59;66.07;100605.93;1797691;78;21346;-59
2023/05/28 07:22:38;;;;;;;11.48;4.75;;;;;;;20.67;65.89;100611.70;1830323;78;21192;-61
2023/05/28 07:25:43;;;;;;;9.83;4.45;;;;;;;20.71;65.70;100610.13;1819916;77;21307;-60
2023/05/28 07:28:49;;;;;;;11.05;4.78;;;;;;;20.74;65.61;100606.87;1799005;79;21414;-60
2023/05/28 07:31:57;;;;;;;10.13;4.78;;;;;;;20.83;65.59;100609.65;1803703;79;21244;-60
2023/05/28 07:35:06;;;;;;;9.85;4.40;;;;;;;20.90;65.48;100607.59;1804760;78;21882;-61
2023/05/28 07:38:14;;;;;;;11.08;4.33;;;;;;;20.95;65.37;100612.48;1772491;81;21744;-60
2023/05/28 07:41:22;;;;;;;15.25;4.70;;;;;;;20.97;65.16;100604.22;1797229;79;21410;-61
2023/05/28 07:44:34;;;;;;;11.18;4.90;;;;;;;21.00;65.07;100605.66;1803590;79;21883;-61
2023/05/28 07:47:41;;;;;;;11.90;4.80;;;;;;;21.06;64.99;100606.95;1803612;79;21366;-60
2023/05/28 07:50:49;;;;;;;8.43;4.53;;;;;;;21.14;64.94;100610.78;1802143;79;21331;-61
2023/05/28 07:54:00;;;;;;;11.55;4.58;;;;;;;21.22;64.76;100603.48;1804787;79;21699;-59
2023/05/28 07:57:08;;;;;;;8.25;4.37;;;;;;;21.30;64.61;100603.13;1804861;79;21358;-60
2023/05/28 08:00:16;;;;;;;11.90;4.12;;;;;;;21.32;64.32;100595.39;1804563;78;21393;-60
2023/05/28 08:03:27;;;;;;;8.60;4.17;;;;;;;21.38;64.22;100605.56;1804650;79;21346;-60
2023/05/28 08:06:33;;;;;;;10.68;4.60;;;;;;;21.42;64.03;100594.80;1805024;79;21781;-61
2023/05/28 08:09:42;;;;;;;8.65;4.33;;;;;;;21.44;63.80;100599.02;1804967;78;21358;-60
2023/05/28 08:12:48;;;;;;;10.10;4.08;;;;;;;21.49;63.70;100588.54;1805312;79;21358;-61
2023/05/28 08:15:55;;;;;;;9.10;4.20;;;;;;;21.56;63.58;100594.86;1805572;78;21362;-60
2023/05/28 08:19:12;;;;;;;10.03;4.00;;;;;;;21.65;63.49;100592.00;1744668;81;21818;-62
2023/05/28 08:22:21;;;;;;;10.98;4.62;;;;;;;21.75;63.37;100591.75;1767248;81;21256;-58
2023/05/28 08:25:27;;;;;;;7.67;3.98;;;;;;;21.83;63.19;100585.80;1805017;78;21319;-62
2023/05/28 08:28:36;;;;;;;7.35;3.85;;;;;;;21.91;63.03;100583.17;1804311;79;21840;-61
2023/05/28 08:31:43;;;;;;;12.45;4.30;;;;;;;22.01;62.91;100587.03;1804923;78;21393;-60
2023/05/28 08:35:04;;;;;;;6.95;3.92;;;;;;;22.11;62.76;100600.34;1805384;78;22192;-62
2023/05/28 08:38:11;;;;;;;8.75;4.65;;;;;;;22.15;62.49;100591.23;1809489;78;21359;-61
2023/05/28 08:41:18;;;;;;;11.25;4.45;;;;;;;22.21;62.25;100592.20;1830618;78;21185;-62
2023/05/28 08:44:25;;;;;;;8.70;5.12;;;;;;;22.28;62.07;100599.05;1817201;78;21211;-60
2023/05/28 08:47:34;;;;;;;8.70;4.12;;;;;;;22.36;61.86;100594.48;1781226;79;21355;-60
2023/05/28 08:50:46;;;;;;;9.03;4.20;;;;;;;22.46;61.73;100597.45;1799686;79;21335;-61
2023/05/28 08:53:55;;;;;;;10.23;4.20;;;;;;;22.50;61.46;100600.06;1793423;78;21397;-60
2023/05/28 08:57:02;;;;;;;8.33;4.08;;;;;;;22.61;61.30;100602.00;1773103;81;21437;-61
2023/05/28 09:00:10;;;;;;;6.55;3.90;;;;;;;22.71;61.00;100607.76;1772663;79;21350;-59
2023/05/28 09:03:32;;;;;;;5.92;3.95;;;;;;;22.77;60.79;100610.41;1754899;81;21219;-63
2023/05/28 09:06:40;;;;;;;7.80;3.87;;;;;;;22.81;60.49;100589.28;1773056;79;21428;-55
2023/05/28 09:09:50;;;;;;;7.85;4.10;;;;;;;22.85;60.18;100589.63;1773441;79;21252;-60
2023/05/28 09:13:07;;;;;;;8.53;4.40;;;;;;;22.90;59.94;100600.87;1781940;79;21381;-59
2023/05/28 09:16:16;;;;;;;11.48;4.45;;;;;;;22.93;59.71;100591.45;1735601;82;21220;-58
2023/05/28 09:19:23;;;;;;;6.60;4.03;;;;;;;22.97;59.44;100587.07;1758264;79;21197;-60
2023/05/28 09:22:29;;;;;;;6.70;3.83;;;;;;;22.98;59.12;100587.89;1790774;78;21347;-59
2023/05/28 09:25:46;;;;;;;10.60;4.97;;;;;;;23.04;58.99;100603.67;1804429;78;21943;-60
2023/05/28 09:28:57;;;;;;;8.38;4.35;;;;;;;23.10;58.75;100604.05;1803010;79;21370;-60
2023/05/28 09:32:03;;;;;;;9.43;4.28;;;;;;;23.16;58.61;100603.89;1805848;79;21694;-60
2023/05/28 09:35:15;;;;;;;18.92;5.40;;;;;;;23.22;58.21;100605.67;1797890;79;21322;-59
2023/05/28 09:38:24;;;;;;;7.90;4.10;;;;;;;23.30;57.91;100597.45;1775552;80;21890;-60
2023/05/28 09:41:34;;;;;;;7.92;3.98;;;;;;;23.38;57.73;100605.41;1793936;80;21450;-60
2023/05/28 09:44:40;;;;;;;11.38;4.53;;;;;;;23.41;57.34;100605.76;1790709;79;21279;-61
2023/05/28 09:47:51;;;;;;;8.68;4.35;;;;;;;23.47;57.10;100603.88;1790466;80;21216;-59
2023/05/28 09:50:57;;;;;;;7.45;4.15;;;;;;;23.53;56.86;100611.27;1780133;80;21346;-60
2023/05/28 09:54:13;;;;;;;9.05;4.62;;;;;;;23.60;56.57;100600.74;1780916;80;21322;-61
2023/05/28 09:57:22;;;;;;;7.70;4.30;;;;;;;23.67;56.30;100610.35;1763620;81;21222;-60
2023/05/28 10:00:32;;;;;;;8.65;4.90;;;;;;;23.75;56.02;100615.52;1763153;80;21943;-60
2023/05/28 10:03:47;;;;;;;6.55;4.25;;;;;;;23.81;55.74;100613.94;1748037;81;21239;-60
2023/05/28 10:06:55;;;;;;;6.53;3.77;;;;;;;23.90;55.52;100609.59;1763539;81;21437;-59
2023/05/28 10:10:03;;;;;;;7.92;4.22;;;;;;;23.99;55.17;100606.67;1790975;78;21359;-59
2023/05/28 10:13:11;;;;;;;8.13;4.12;;;;;;;24.08;54.89;100605.69;1791745;79;21354;-59
2023/05/28 10:16:18;;;;;;;11.75;4.90;;;;;;;24.18;54.64;100605.27;1785854;79;22281;-61
2023/05/28 10:19:23;;;;;;;7.25;4.17;;;;;;;24.32;54.43;100603.80;1794458;78;21331;-60
2023/05/28 10:22:31;;;;;;;8.03;4.08;;;;;;;24.47;54.20;100601.18;1795097;79;21378;-60
2023/05/28 10:25:38;;;;;;;7.08;4.12;;;;;;;24.60;53.91;100599.38;1794932;78;21370;-60
2023/05/28 10:28:44;;;;;;;14.35;4.60;;;;;;;24.67;53.56;100600.05;1794860;80;21358;-60
2023/05/28 10:31:50;;;;;;;15.88;5.75;;;;;;;24.67;53.10;100595.84;1794199;80;21887;-60
2023/05/28 10:34:57;;;;;;;9.18;4.28;;;;;;;24.75;52.99;100593.16;1794738;78;21856;-59
2023/05/28 10:38:15;;;;;;;8.15;3.87;;;;;;;24.76;52.62;100591.48;1788966;79;21371;-59
2023/05/28 10:41:28;;;;;;;7.45;4.17;;;;;;;24.82;52.36;100594.62;1786823;78;21411;-59
2023/05/28 10:44:32;;;;;;;10.28;4.20;;;;;;;24.88;51.99;100589.36;1792596;78;21370;-61
2023/05/28 10:47:46;;;;;;;9.70;4.78;;;;;;;24.98;51.93;100593.67;1792300;80;21362;-59
2023/05/28 10:51:05;;;;;;;15.98;5.37;;;;;;;25.07;51.48;100587.02;1792646;78;21394;-60
2023/05/28 10:54:24;;;;;;;8.63;3.98;;;;;;;25.04;51.03;100573.00;1792532;79;21994;-60
2023/05/28 10:57:30;;;;;;;9.10;4.10;;;;;;;25.03;50.75;100575.52;1790051;79;22030;-60
2023/05/28 11:00:38;;;;;;;13.08;3.77;;;;;;;25.11;50.60;100576.13;1791056;78;21373;-58
2023/05/28 11:03:53;;;;;;;7.80;3.92;;;;;;;25.20;50.38;100579.58;1775859;80;21196;-61
2023/05/28 11:07:03;;;;;;;6.17;3.87;;;;;;;25.33;50.12;100575.48;1783172;79;21354;-59
2023/05/28 11:10:12;;;;;;;6.85;3.85;;;;;;;25.39;49.69;100574.44;1772265;78;21255;-60
2023/05/28 11:13:18;;;;;;;7.37;3.95;;;;;;;25.44;49.44;100575.34;1759774;80;22049;-61
2023/05/28 11:16:24;;;;;;;11.48;4.10;;;;;;;25.50;49.08;100563.63;1766142;80;21189;-60
2023/05/28 11:19:32;;;;;;;9.13;3.70;;;;;;;25.54;48.75;100574.03;1774726;79;21181;-60
2023/05/28 11:22:42;;;;;;;7.20;3.62;;;;;;;25.54;48.43;100573.17;1751499;80;21170;-59
2023/05/28 11:25:50;;;;;;;7.50;3.90;;;;;;;25.62;48.18;100579.69;1721535;82;21237;-60
2023/05/28 11:28:56;;;;;;;9.15;4.40;;;;;;;25.55;47.82;100568.70;1720738;82;21242;-60
2023/05/28 11:32:06;;;;;;;6.83;3.50;;;;;;;25.54;47.50;100572.63;1727597;82;21743;-60
2023/05/28 11:35:13;;;;;;;10.65;3.85;;;;;;;25.58;47.32;100571.50;1723289;81;21217;-61
2023/05/28 11:38:21;;;;;;;5.83;3.15;;;;;;;25.68;47.06;100564.58;1724733;80;21213;-61
2023/05/28 11:41:31;;;;;;;8.60;3.70;;;;;;;25.76;46.91;100563.52;1723044;82;21243;-59
2023/05/28 11:44:37;;;;;;;7.90;4.08;;;;;;;25.78;46.49;100576.70;1732364;82;21712;-60
2023/05/28 11:47:48;;;;;;;7.55;3.85;;;;;;;25.70;46.19;100561.81;1728289;82;21188;-61
2023/05/28 11:50:54;;;;;;;6.75;3.60;;;;;;;25.73;45.96;100560.41;1736291;82;21322;-59
2023/05/28 11:54:00;;;;;;;17.52;3.98;;;;;;;25.74;45.72;100565.75;1736873;82;21758;-60
2023/05/28 11:57:09;;;;;;;8.43;3.98;;;;;;;25.76;45.39;100559.86;1735993;82;21867;-60
2023/05/28 12:00:20;;;;;;;8.43;3.40;;;;;;;25.85;45.25;100565.23;1714123;82;21238;-60
2023/05/28 12:03:25;;;;;;;6.10;3.30;;;;;;;25.85;44.90;100564.69;1743932;80;21193;-61
2023/05/28 12:06:32;;;;;;;6.62;3.75;;;;;;;25.84;44.64;100566.37;1743318;81;21232;-61
2023/05/28 12:09:39;;;;;;;6.08;3.52;;;;;;;25.86;44.43;100567.77;1766100;79;21773;-60
2023/05/28 12:12:51;;;;;;;5.95;3.45;;;;;;;25.85;44.13;100577.86;1765564;79;21238;-60
2023/05/28 12:15:58;;;;;;;6.45;3.85;;;;;;;25.76;43.80;100573.34;1766565;80;21191;-60
2023/05/28 12:19:13;;;;;;;6.10;3.52;;;;;;;25.69;43.61;100573.30;1766653;81;21242;-60
2023/05/28 12:22:22;;;;;;;5.30;3.15;;;;;;;25.70;43.44;100569.37;1767178;81;21193;-60
2023/05/28 12:25:28;;;;;;;12.53;3.62;;;;;;;25.74;43.35;100561.53;1767880;80;21404;-58
2023/05/28 12:28:39;;;;;;;6.92;3.58;;;;;;;25.75;43.07;100567.42;1745041;80;21865;-61
2023/05/28 12:31:44;;;;;;;6.22;3.92;;;;;;;25.77;42.81;100565.75;1742465;79;22019;-59
2023/05/28 12:34:51;;;;;;;9.15;3.60;;;;;;;25.70;42.54;100551.99;1736178;81;21225;-58
2023/05/28 12:37:58;;;;;;;8.75;3.40;;;;;;;25.66;42.37;100558.38;1736034;79;21525;-59
2023/05/28 12:41:07;;;;;;;5.42;3.17;;;;;;;25.59;42.20;100563.40;1773682;79;21399;-58
2023/05/28 12:44:12;;;;;;;5.12;3.12;;;;;;;25.55;42.09;100549.06;1773386;81;21453;-59
2023/05/28 12:47:19;;;;;;;6.10;3.30;;;;;;;25.54;41.95;100537.58;1773895;80;21205;-60
2023/05/28 12:50:24;;;;;;;6.67;3.35;;;;;;;25.52;41.88;100541.20;1788458;78;21371;-61
2023/05/28 12:53:30;;;;;;;7.87;3.45;;;;;;;25.55;41.74;100536.99;1787217;79;21421;-60
2023/05/28 12:56:36;;;;;;;6.58;3.65;;;;;;;25.59;41.60;100540.42;1803130;78;21883;-61
2023/05/28 12:59:41;;;;;;;6.62;3.02;;;;;;;25.56;41.44;100554.95;1802975;79;21354;-59
2023/05/28 13:02:49;;;;;;;4.92;3.10;;;;;;;25.56;41.28;100545.72;1803144;79;21358;-59
2023/05/28 13:05:54;;;;;;;7.85;3.22;;;;;;;25.59;41.16;100547.98;1802776;79;21429;-59
2023/05/28 13:09:01;;;;;;;5.65;3.62;;;;;;;25.66;41.09;100552.77;1794712;79;21421;-58
2023/05/28 13:12:08;;;;;;;4.92;3.15;;;;;;;25.71;40.94;100559.83;1787438;80;21335;-59
2023/05/28 13:15:17;;;;;;;8.38;3.58;;;;;;;25.70;40.77;100547.78;1787359;79;21378;-59
2023/05/28 13:18:22;;;;;;;5.33;3.22;;;;;;;25.69;40.65;100544.67;1769476;80;21220;-60
2023/05/28 13:21:28;;;;;;;8.25;3.45;;;;;;;25.67;40.54;100539.88;1786570;79;21355;-59
2023/05/28 13:24:34;;;;;;;8.30;3.33;;;;;;;25.69;40.41;100553.66;1804004;78;21192;-59
2023/05/28 13:27:45;;;;;;;7.55;3.65;;;;;;;25.67;40.26;100550.28;1828824;78;21728;-60
2023/05/28 13:30:51;;;;;;;7.97;4.08;;;;;;;25.67;40.18;100553.91;1829398;77;21176;-60
2023/05/28 13:33:56;;;;;;;6.58;3.58;;;;;;;25.69;40.08;100546.08;1830232;78;21451;-60
2023/05/28 13:37:02;;;;;;;7.10;3.45;;;;;;;25.76;39.99;100555.11;1829674;78;21698;-59
2023/05/28 13:40:11;;;;;;;11.15;3.37;;;;;;;25.73;39.82;100550.59;1831871;78;21204;-59
2023/05/28 13:43:16;;;;;;;7.67;3.72;;;;;;;25.72;39.75;100551.72;1839132;78;21393;-60
2023/05/28 13:46:24;;;;;;;4.87;3.45;;;;;;;25.73;39.61;100557.05;1839507;76;21318;-60
2023/05/28 13:49:30;;;;;;;4.75;3.05;;;;;;;25.70;39.49;100549.73;1839438;76;21358;-60
2023/05/28 13:52:39;;;;;;;5.40;3.27;;;;;;;25.70;39.41;100551.14;1817490;78;21334;-61
2023/05/28 13:55:46;;;;;;;6.42;3.17;;;;;;;25.73;39.26;100547.78;1817064;77;21850;-61
2023/05/28 13:58:54;;;;;;;6.67;3.10;;;;;;;25.79;39.18;100553.16;1775202;80;21915;-61
2023/05/28 14:02:00;;;;;;;7.60;3.35;;;;;;;25.80;39.05;100552.61;1778047;80;21902;-60
2023/05/28 14:05:07;;;;;;;7.62;2.92;;;;;;;25.74;38.91;100560.13;1775797;79;21887;-61
2023/05/28 14:08:13;;;;;;;7.47;3.10;;;;;;;25.73;38.85;100560.41;1768599;80;21339;-61
2023/05/28 14:11:20;;;;;;;6.87;3.10;;;;;;;25.72;38.76;100547.52;1736143;81;21349;-60
2023/05/28 14:14:27;;;;;;;5.65;3.45;;;;;;;25.74;38.77;100569.09;1807269;79;21212;-61
2023/05/28 14:17:35;;;;;;;6.60;3.10;;;;;;;25.72;38.63;100560.95;1807386;79;21346;-60
2023/05/28 14:20:42;;;;;;;9.58;3.08;;;;;;;25.70;38.61;100553.39;1809718;79;21223;-60
2023/05/28 14:23:50;;;;;;;7.17;3.12;;;;;;;25.73;38.59;100547.78;1813021;79;21745;-60
2023/05/28 14:26:57;;;;;;;6.37;3.50;;;;;;;25.68;38.47;100554.77;1804765;79;21880;-60
2023/05/28 14:30:03;;;;;;;8.05;3.27;;;;;;;25.62;38.41;100547.44;1804057;78;21888;-60